Time;durP1;ratioP1;P1;durP2;ratioP2;P2;SDS_P1;SDS_P2;PMS_P1;PMS_P2;Temp;Humidity;BMP_temperature;BMP_pressure;BME280_temperature;BME280_humidity;BME280_pressure;Samples;Min_cycle;Max_cycle;Signal;HPM_P1;HPM_P2
2021/03/25 00:01:33;;;;;;;8.90;5.15;;;;;;;-139.48;100.00;61774.03;4992116;28;20080;-64
2021/03/25 00:04:17;;;;;;;9.27;5.60;;;;;;;-139.48;100.00;61774.03;4992179;28;20120;-63
2021/03/25 00:07:01;;;;;;;9.07;4.97;;;;;;;-139.48;100.00;61774.03;4992210;28;20049;-65
2021/03/25 00:09:45;;;;;;;12.48;5.78;;;;;;;-139.48;100.00;61774.03;4992344;28;20514;-65
2021/03/25 00:12:29;;;;;;;12.63;5.65;;;;;;;-139.48;100.00;61774.03;4993249;28;20103;-65
2021/03/25 00:15:14;;;;;;;12.82;5.60;;;;;;;-139.48;100.00;61774.03;4992077;28;20435;-64
2021/03/25 00:17:58;;;;;;;12.95;6.18;;;;;;;-139.48;100.00;61774.03;4992325;28;20080;-65
2021/03/25 00:20:43;;;;;;;9.38;5.45;;;;;;;-139.48;100.00;61774.03;4978340;28;20088;-64
2021/03/25 00:23:27;;;;;;;11.18;5.47;;;;;;;-139.48;100.00;61774.03;4992304;28;20131;-64
2021/03/25 00:26:11;;;;;;;7.32;5.07;;;;;;;-139.48;100.00;61774.03;4993350;28;20482;-65
2021/03/25 00:28:55;;;;;;;8.30;5.43;;;;;;;-139.48;100.00;61774.03;4992075;28;20111;-65
2021/03/25 00:31:40;;;;;;;12.32;6.70;;;;;;;-139.48;100.00;61774.03;4993037;28;20045;-65
2021/03/25 00:34:24;;;;;;;6.90;4.75;;;;;;;-139.48;100.00;61774.03;4992166;28;20189;-64
2021/03/25 00:37:08;;;;;;;10.00;5.65;;;;;;;-139.48;100.00;61774.03;4993126;28;20074;-65
2021/03/25 00:39:53;;;;;;;8.13;5.50;;;;;;;-139.48;100.00;61774.03;4992107;28;20509;-65
2021/03/25 00:42:38;;;;;;;10.10;4.95;;;;;;;-139.48;100.00;61774.03;4993172;28;20101;-65
2021/03/25 00:45:26;;;;;;;11.02;4.70;;;;;;;-139.48;100.00;61774.03;4992017;28;20146;-65
2021/03/25 00:48:11;;;;;;;13.00;5.55;;;;;;;-139.48;100.00;61774.03;4992106;28;20177;-65
2021/03/25 00:51:02;;;;;;;7.75;5.03;;;;;;;-139.48;100.00;61774.03;4991821;28;20108;-64
2021/03/25 00:53:46;;;;;;;8.25;5.53;;;;;;;-139.48;100.00;61774.03;4978788;28;20187;-65
2021/03/25 00:56:30;;;;;;;10.65;5.35;;;;;;;-139.48;100.00;61774.03;4993024;28;20126;-65
2021/03/25 00:59:14;;;;;;;11.82;5.60;;;;;;;-139.48;100.00;61774.03;4978316;28;20582;-65
2021/03/25 01:01:59;;;;;;;10.48;5.95;;;;;;;-139.48;100.00;61774.03;4994989;28;20103;-65
2021/03/25 01:04:43;;;;;;;9.35;5.95;;;;;;;-139.48;100.00;61774.03;4995396;28;20115;-65
2021/03/25 01:07:28;;;;;;;11.13;5.47;;;;;;;-139.48;100.00;61774.03;4996634;28;20104;-65
2021/03/25 01:10:34;;;;;;;10.43;6.47;;;;;;;-139.48;100.00;61774.03;4995430;28;20065;-65
2021/03/25 01:13:53;;;;;;;8.95;5.00;;;;;;;-139.48;100.00;61774.03;4981465;28;20050;-65
2021/03/25 01:16:41;;;;;;;8.65;5.18;;;;;;;-139.48;100.00;61774.03;4988517;28;20176;-65
2021/03/25 01:19:28;;;;;;;11.68;6.25;;;;;;;-139.48;100.00;61774.03;4996061;28;20054;-65
2021/03/25 01:22:12;;;;;;;8.35;5.38;;;;;;;-139.48;100.00;61774.03;4995269;28;20511;-65
2021/03/25 01:24:56;;;;;;;9.55;5.43;;;;;;;-139.48;100.00;61774.03;4995037;28;20057;-65
2021/03/25 01:27:40;;;;;;;9.18;5.97;;;;;;;-139.48;100.00;61774.03;4995200;28;20570;-64
2021/03/25 01:30:25;;;;;;;10.80;5.00;;;;;;;-139.48;100.00;61774.03;4996025;28;20053;-65
2021/03/25 01:33:10;;;;;;;13.75;5.15;;;;;;;-139.48;100.00;61774.03;4995006;28;20503;-65
2021/03/25 01:35:55;;;;;;;8.70;5.20;;;;;;;-139.48;100.00;61774.03;4981027;28;20061;-65
2021/03/25 01:38:39;;;;;;;7.97;5.22;;;;;;;-139.48;100.00;61774.03;4994861;28;20053;-65
2021/03/25 01:41:27;;;;;;;8.68;4.90;;;;;;;-139.48;100.00;61774.03;4995838;28;20052;-65
2021/03/25 01:44:38;;;;;;;8.07;5.03;;;;;;;-139.48;100.00;61774.03;4994492;28;20053;-65
2021/03/25 01:47:22;;;;;;;9.07;5.20;;;;;;;-139.48;100.00;61774.03;4995775;28;20120;-65
2021/03/25 01:50:07;;;;;;;10.75;4.88;;;;;;;-139.48;100.00;61774.03;4995062;28;20049;-65
2021/03/25 01:53:23;;;;;;;11.07;5.88;;;;;;;-139.48;100.00;61774.03;4995818;28;20127;-64
2021/03/25 01:56:08;;;;;;;10.27;5.18;;;;;;;-139.48;100.00;61774.03;4994315;28;20104;-65
2021/03/25 01:59:17;;;;;;;9.02;5.15;;;;;;;-139.48;100.00;61774.03;4995322;28;20048;-64
2021/03/25 02:02:22;;;;;;;10.25;5.13;;;;;;;-139.48;100.00;61774.03;4995331;28;20054;-65
2021/03/25 02:05:26;;;;;;;8.65;4.80;;;;;;;-139.48;100.00;61774.03;4993976;28;20049;-65
2021/03/25 02:08:42;;;;;;;11.63;5.03;;;;;;;-139.48;100.00;61774.03;4994149;28;20048;-65
2021/03/25 02:12:05;;;;;;;9.55;5.60;;;;;;;-139.48;100.00;61774.03;4993768;28;20454;-65
2021/03/25 02:15:04;;;;;;;9.25;5.18;;;;;;;-139.48;100.00;61774.03;5015049;23;20076;-67
2021/03/25 02:17:56;;;;;;;8.77;4.90;;;;;;;-139.48;100.00;61774.03;5013728;28;20049;-67
2021/03/25 02:21:11;;;;;;;8.07;5.13;;;;;;;-139.48;100.00;61774.03;4999818;28;20136;-70
2021/03/25 02:24:14;;;;;;;6.45;4.38;;;;;;;-139.48;100.00;61774.03;5013580;28;20073;-70
2021/03/25 02:27:17;;;;;;;8.63;5.38;;;;;;;-139.48;100.00;61774.03;5013643;28;20418;-69
2021/03/25 02:30:04;;;;;;;9.43;4.68;;;;;;;-139.48;100.00;61774.03;5014360;28;20092;-69
2021/03/25 02:32:56;;;;;;;9.93;5.15;;;;;;;-139.48;100.00;61774.03;5014519;28;20071;-69
2021/03/25 02:35:47;;;;;;;8.38;5.13;;;;;;;-139.48;100.00;61774.03;4999281;28;20101;-69
2021/03/25 02:38:44;;;;;;;8.50;4.90;;;;;;;-139.48;100.00;61774.03;5013372;28;20057;-69
2021/03/25 02:41:39;;;;;;;12.50;7.00;;;;;;;-139.48;100.00;61774.03;5013019;28;20533;-69
2021/03/25 02:44:30;;;;;;;11.80;6.25;;;;;;;-139.48;100.00;61774.03;5013135;28;20119;-69
2021/03/25 02:47:15;;;;;;;9.40;6.03;;;;;;;-139.48;100.00;61774.03;5013218;28;20100;-69
2021/03/25 02:50:13;;;;;;;12.23;5.38;;;;;;;-139.48;100.00;61774.03;4999274;28;20037;-69
2021/03/25 02:53:07;;;;;;;10.10;5.63;;;;;;;-139.48;100.00;61774.03;5013882;28;20418;-69
2021/03/25 02:55:52;;;;;;;9.50;4.80;;;;;;;-139.48;100.00;61774.03;5012811;28;20490;-67
2021/03/25 02:58:37;;;;;;;10.90;5.18;;;;;;;-139.48;100.00;61774.03;4999065;28;20444;-69
2021/03/25 03:01:22;;;;;;;8.50;4.97;;;;;;;-139.48;100.00;61774.03;5012754;28;20129;-69
2021/03/25 03:04:11;;;;;;;11.63;4.53;;;;;;;-139.48;100.00;61774.03;5012599;28;20076;-69
2021/03/25 03:07:09;;;;;;;7.82;5.05;;;;;;;-139.48;100.00;61774.03;5012771;28;20477;-69
2021/03/25 03:09:57;;;;;;;7.22;4.55;;;;;;;-139.48;100.00;61774.03;4998931;28;20478;-69
2021/03/25 03:12:45;;;;;;;8.65;5.72;;;;;;;-139.48;100.00;61774.03;4998902;28;20052;-67
2021/03/25 03:15:46;;;;;;;9.75;5.20;;;;;;;-139.48;100.00;61774.03;5012291;28;20064;-69
2021/03/25 03:18:42;;;;;;;9.82;5.28;;;;;;;-139.48;100.00;61774.03;4998813;28;20051;-69
2021/03/25 03:21:42;;;;;;;9.07;5.10;;;;;;;-139.48;100.00;61774.03;4998694;28;20064;-69
2021/03/25 03:24:26;;;;;;;11.48;5.63;;;;;;;-139.48;100.00;61774.03;4998338;28;20053;-69
2021/03/25 03:27:20;;;;;;;9.23;5.82;;;;;;;-139.48;100.00;61774.03;4998666;28;20045;-69
2021/03/25 03:30:11;;;;;;;11.48;5.75;;;;;;;-139.48;100.00;61774.03;5012517;28;20057;-69
2021/03/25 03:33:06;;;;;;;8.13;4.97;;;;;;;-139.48;100.00;61774.03;5012308;28;20108;-69
2021/03/25 03:35:56;;;;;;;12.45;5.75;;;;;;;-139.48;100.00;61774.03;4998288;28;20127;-69
2021/03/25 03:38:50;;;;;;;7.20;4.95;;;;;;;-139.48;100.00;61774.03;4998425;28;20091;-69
2021/03/25 03:41:40;;;;;;;9.25;5.47;;;;;;;-139.48;100.00;61774.03;4998756;28;20053;-69
2021/03/25 03:44:30;;;;;;;7.85;5.10;;;;;;;-139.48;100.00;61774.03;5012156;28;20069;-69
2021/03/25 03:47:16;;;;;;;9.68;5.90;;;;;;;-139.48;100.00;61774.03;4998382;28;20044;-69
2021/03/25 03:50:21;;;;;;;9.15;5.57;;;;;;;-139.48;100.00;61774.03;5012173;28;20052;-69
2021/03/25 03:53:05;;;;;;;;;;;;;;;-139.48;100.00;61774.03;5012359;28;20061;-69
2021/03/25 03:55:50;;;;;;;9.07;5.80;;;;;;;-139.48;100.00;61774.03;5011850;28;19971;-69
2021/03/25 03:58:44;;;;;;;7.63;5.50;;;;;;;-139.48;100.00;61774.03;4998440;28;20128;-69
2021/03/25 04:01:31;;;;;;;12.38;6.47;;;;;;;-139.48;100.00;61774.03;5011777;28;20041;-69
2021/03/25 04:04:26;;;;;;;10.80;6.93;;;;;;;-139.48;100.00;61774.03;5012827;28;20100;-69
2021/03/25 04:07:16;;;;;;;14.07;6.45;;;;;;;-139.48;100.00;61774.03;4998111;28;20053;-69
2021/03/25 04:10:25;;;;;;;9.52;6.68;;;;;;;-139.48;100.00;61774.03;5012029;28;20514;-69
2021/03/25 04:13:12;;;;;;;9.95;6.20;;;;;;;-139.48;100.00;61774.03;5011666;28;20053;-69
2021/03/25 04:15:57;;;;;;;8.40;5.40;;;;;;;-139.48;100.00;61774.03;5011507;28;20053;-68
2021/03/25 04:18:45;;;;;;;9.05;5.65;;;;;;;-139.48;100.00;61774.03;4998004;28;20125;-69
2021/03/25 04:21:32;;;;;;;9.20;5.93;;;;;;;-139.48;100.00;61774.03;5011693;28;20060;-69
2021/03/25 04:24:21;;;;;;;10.48;5.20;;;;;;;-139.48;100.00;61774.03;4997912;28;20100;-69
2021/03/25 04:27:07;;;;;;;10.23;6.28;;;;;;;-139.48;100.00;61774.03;4997756;28;20430;-69
2021/03/25 04:30:04;;;;;;;11.88;6.28;;;;;;;-139.48;100.00;61774.03;4997957;28;20057;-69
2021/03/25 04:32:49;;;;;;;12.10;7.25;;;;;;;-139.48;100.00;61774.03;5012056;28;20133;-69
2021/03/25 04:35:33;;;;;;;9.40;6.22;;;;;;;-139.48;100.00;61774.03;4998418;28;20073;-69
2021/03/25 04:38:19;;;;;;;11.45;6.63;;;;;;;-139.48;100.00;61774.03;5015668;28;20104;-68
2021/03/25 04:41:03;;;;;;;10.45;6.57;;;;;;;-139.48;100.00;61774.03;5015317;28;20052;-69
2021/03/25 04:43:47;;;;;;;9.68;5.85;;;;;;;-139.48;100.00;61774.03;5015598;28;20049;-69
2021/03/25 04:46:46;;;;;;;10.60;6.25;;;;;;;-139.48;100.00;61774.03;5015246;28;20065;-68
2021/03/25 04:49:37;;;;;;;8.45;5.68;;;;;;;-139.48;100.00;61774.03;5015175;28;20474;-69
2021/03/25 04:52:28;;;;;;;11.80;6.50;;;;;;;-139.48;100.00;61774.03;5001531;28;20045;-69
2021/03/25 04:55:21;;;;;;;14.90;7.63;;;;;;;-139.48;100.00;61774.03;5015298;28;20084;-70
2021/03/25 04:58:08;;;;;;;9.68;5.50;;;;;;;-139.48;100.00;61774.03;5015410;28;20229;-70
2021/03/25 05:00:53;;;;;;;11.65;7.32;;;;;;;-139.48;100.00;61774.03;5015153;28;20049;-68
2021/03/25 05:03:37;;;;;;;14.45;8.27;;;;;;;-139.48;100.00;61774.03;5015017;28;20052;-68
2021/03/25 05:06:25;;;;;;;12.00;6.85;;;;;;;-139.48;100.00;61774.03;5001429;28;20471;-69
2021/03/25 05:09:13;;;;;;;10.98;7.13;;;;;;;-139.48;100.00;61774.03;5001228;28;20103;-69
2021/03/25 05:11:57;;;;;;;12.88;8.05;;;;;;;-139.48;100.00;61774.03;5014752;28;20045;-68
2021/03/25 05:14:41;;;;;;;15.57;8.82;;;;;;;-139.48;100.00;61774.03;5014657;28;20111;-67
2021/03/25 05:17:36;;;;;;;14.55;8.38;;;;;;;-139.48;100.00;61774.03;5015708;28;20113;-69
2021/03/25 05:20:25;;;;;;;17.02;10.70;;;;;;;-139.48;100.00;61774.03;5000843;28;20099;-69
2021/03/25 05:23:17;;;;;;;18.80;11.80;;;;;;;-139.48;100.00;61774.03;5000743;28;20525;-68
2021/03/25 05:26:06;;;;;;;11.27;7.07;;;;;;;-139.48;100.00;61774.03;5014851;28;20052;-69
2021/03/25 05:28:54;;;;;;;10.85;6.93;;;;;;;-139.48;100.00;61774.03;5014504;28;20049;-68
2021/03/25 05:31:39;;;;;;;13.75;8.25;;;;;;;-139.48;100.00;61774.03;5000716;28;20053;-68
2021/03/25 05:34:25;;;;;;;13.98;8.00;;;;;;;-139.48;100.00;61774.03;5014658;28;20139;-68
2021/03/25 05:37:09;;;;;;;15.02;9.52;;;;;;;-139.48;100.00;61774.03;5015513;28;20169;-68
2021/03/25 05:39:53;;;;;;;16.65;9.15;;;;;;;-139.48;100.00;61774.03;5000552;28;20057;-69
2021/03/25 05:43:14;;;;;;;19.58;10.95;;;;;;;-139.48;100.00;61774.03;5000337;28;20100;-69
2021/03/25 05:46:09;;;;;;;19.15;11.30;;;;;;;-139.48;100.00;61774.03;5015002;28;20048;-68
2021/03/25 05:49:04;;;;;;;21.05;11.43;;;;;;;-139.48;100.00;61774.03;5014183;28;20080;-68
2021/03/25 05:52:14;;;;;;;20.38;11.70;;;;;;;-139.48;100.00;61774.03;5000679;28;20410;-68
2021/03/25 05:55:30;;;;;;;17.25;10.05;;;;;;;-139.48;100.00;61774.03;5015190;28;20096;-68
2021/03/25 05:58:26;;;;;;;15.32;10.60;;;;;;;-139.48;100.00;61774.03;4999766;28;20516;-68
2021/03/25 06:01:13;;;;;;;15.65;10.63;;;;;;;-139.48;100.00;61774.03;5013825;28;20088;-69
2021/03/25 06:04:00;;;;;;;18.20;11.95;;;;;;;-139.48;100.00;61774.03;5014742;28;20141;-68
2021/03/25 06:07:05;;;;;;;16.35;10.23;;;;;;;-139.48;100.00;61774.03;5014746;28;20053;-68
2021/03/25 06:10:15;;;;;;;18.10;11.48;;;;;;;-139.48;100.00;61774.03;5013924;28;20168;-68
2021/03/25 06:13:20;;;;;;;21.77;11.05;;;;;;;-139.48;100.00;61774.03;5013982;28;20049;-68
2021/03/25 06:16:19;;;;;;;24.02;12.98;;;;;;;-139.48;100.00;61774.03;5014479;28;20057;-68
2021/03/25 06:19:25;;;;;;;19.05;11.27;;;;;;;-139.48;100.00;61774.03;5013613;28;20196;-68
2021/03/25 06:22:23;;;;;;;18.70;12.20;;;;;;;-139.48;100.00;61774.03;5013628;28;20053;-68
2021/03/25 06:25:21;;;;;;;25.55;12.45;;;;;;;-139.48;100.00;61774.03;5013241;28;20367;-68
2021/03/25 06:28:23;;;;;;;23.38;12.73;;;;;;;-139.48;100.00;61774.03;4999675;28;20071;-68
2021/03/25 06:31:28;;;;;;;21.20;12.55;;;;;;;-139.48;100.00;61774.03;5014718;28;20196;-68
2021/03/25 06:34:39;;;;;;;19.65;12.45;;;;;;;-139.48;100.00;61774.03;4999810;28;20060;-69
2021/03/25 06:37:33;;;;;;;19.92;12.55;;;;;;;-139.48;100.00;61774.03;5014138;28;20576;-68
2021/03/25 06:40:22;;;;;;;20.90;12.35;;;;;;;-139.48;100.00;61774.03;5013563;28;20053;-68
2021/03/25 06:43:41;;;;;;;25.50;13.18;;;;;;;-139.48;100.00;61774.03;4999477;28;20084;-68
2021/03/25 06:46:46;;;;;;;19.02;12.88;;;;;;;-139.48;100.00;61774.03;5013257;28;20053;-68
2021/03/25 06:49:50;;;;;;;22.70;11.18;;;;;;;-139.48;100.00;61774.03;5014030;28;20056;-68
2021/03/25 06:52:38;;;;;;;19.75;12.70;;;;;;;-139.48;100.00;61774.03;5013335;28;20095;-68
2021/03/25 06:55:26;;;;;;;17.98;11.65;;;;;;;-139.48;100.00;61774.03;5012801;28;20599;-68
2021/03/25 06:58:18;;;;;;;20.30;12.07;;;;;;;-139.48;100.00;61774.03;5012335;28;20048;-68
2021/03/25 07:01:09;;;;;;;20.17;12.07;;;;;;;-139.48;100.00;61774.03;5012641;28;20045;-68
2021/03/25 07:03:56;;;;;;;22.17;12.65;;;;;;;-139.48;100.00;61774.03;5012619;28;20108;-69
2021/03/25 07:06:41;;;;;;;15.65;10.85;;;;;;;-139.48;100.00;61774.03;5012952;28;20092;-68
2021/03/25 07:09:29;;;;;;;19.23;11.55;;;;;;;-139.48;100.00;61774.03;5012543;28;20445;-68
2021/03/25 07:12:21;;;;;;;25.13;11.85;;;;;;;-139.48;100.00;61774.03;5012529;28;20069;-68
2021/03/25 07:15:07;;;;;;;17.23;10.63;;;;;;;-139.48;100.00;61774.03;5012362;28;20160;-68
2021/03/25 07:17:52;;;;;;;17.55;11.05;;;;;;;-139.48;100.00;61774.03;4998578;28;20053;-69
2021/03/25 07:20:37;;;;;;;16.10;10.48;;;;;;;-139.48;100.00;61774.03;5012556;28;20115;-68
2021/03/25 07:23:21;;;;;;;17.05;10.07;;;;;;;-139.48;100.00;61774.03;5012346;28;20049;-68
2021/03/25 07:26:18;;;;;;;19.38;11.05;;;;;;;-139.48;100.00;61774.03;5012917;28;20063;-68
2021/03/25 07:29:18;;;;;;;17.98;10.98;;;;;;;-139.48;100.00;61774.03;5012492;28;20187;-68
2021/03/25 07:32:05;;;;;;;18.67;10.60;;;;;;;-139.48;100.00;61774.03;4998364;28;20044;-68
2021/03/25 07:34:50;;;;;;;16.58;10.40;;;;;;;-139.48;100.00;61774.03;5013333;28;20088;-68
2021/03/25 07:37:40;;;;;;;15.00;10.48;;;;;;;-139.48;100.00;61774.03;5012365;28;20097;-68
2021/03/25 07:40:34;;;;;;;13.55;9.63;;;;;;;-139.48;100.00;61774.03;4998326;28;20060;-68
2021/03/25 07:43:24;;;;;;;18.52;9.43;;;;;;;-139.48;100.00;61774.03;4998338;28;20045;-68
2021/03/25 07:46:18;;;;;;;14.55;9.68;;;;;;;-139.48;100.00;61774.03;5013107;28;20115;-68
2021/03/25 07:49:12;;;;;;;;;;;;;;;-139.48;100.00;61774.03;5012509;28;20045;-68
2021/03/25 07:52:03;;;;;;;15.02;9.45;;;;;;;-139.48;100.00;61774.03;5012180;28;19924;-69
2021/03/25 07:54:47;;;;;;;16.90;9.85;;;;;;;-139.48;100.00;61774.03;5011982;28;20049;-68
2021/03/25 07:57:40;;;;;;;13.73;9.10;;;;;;;-139.48;100.00;61774.03;5012163;28;20139;-68
2021/03/25 08:00:29;;;;;;;14.48;9.13;;;;;;;-139.48;100.00;61774.03;5011828;28;20501;-68
2021/03/25 08:03:21;;;;;;;13.57;9.15;;;;;;;-139.48;100.00;61774.03;5012125;28;20465;-68
2021/03/25 08:06:34;;;;;;;12.55;9.00;;;;;;;-139.48;100.00;61774.03;4998109;28;20518;-68
2021/03/25 08:09:18;;;;;;;14.77;8.45;;;;;;;-139.48;100.00;61774.03;5012861;28;20490;-68
2021/03/25 08:12:02;;;;;;;15.90;9.20;;;;;;;-139.48;100.00;61774.03;5011772;28;20053;-68
2021/03/25 08:14:47;;;;;;;16.55;8.95;;;;;;;-139.48;100.00;61774.03;5011510;28;20096;-68
2021/03/25 08:17:42;;;;;;;14.15;8.43;;;;;;;-139.48;100.00;61774.03;5011717;28;20417;-68
2021/03/25 08:20:39;;;;;;;14.25;9.05;;;;;;;-139.48;100.00;61774.03;4997997;28;20133;-68
2021/03/25 08:23:51;;;;;;;14.40;8.20;;;;;;;-139.48;100.00;61774.03;5012915;28;20136;-68
2021/03/25 08:27:02;;;;;;;10.35;7.22;;;;;;;-139.48;100.00;61774.03;5012821;28;20049;-68
2021/03/25 08:30:04;;;;;;;16.02;7.60;;;;;;;-139.48;100.00;61774.03;4997992;28;20556;-69
2021/03/25 08:32:58;;;;;;;10.93;6.95;;;;;;;-139.48;100.00;61774.03;5011753;28;20096;-69
2021/03/25 08:36:09;;;;;;;12.00;7.43;;;;;;;-139.48;100.00;61774.03;5011871;28;20139;-68
2021/03/25 08:39:05;;;;;;;14.27;7.28;;;;;;;-139.48;100.00;61774.03;5012703;28;20133;-69
2021/03/25 08:41:59;;;;;;;10.57;7.38;;;;;;;-139.48;100.00;61774.03;5011456;28;20092;-67
2021/03/25 08:44:50;;;;;;;10.77;6.70;;;;;;;-139.48;100.00;61774.03;5011462;28;20053;-68
2021/03/25 08:47:43;;;;;;;9.98;7.05;;;;;;;-139.48;100.00;61774.03;4997732;28;20048;-69
2021/03/25 08:50:51;;;;;;;10.25;6.32;;;;;;;-139.48;100.00;61774.03;5012406;28;20095;-67
2021/03/25 08:53:41;;;;;;;11.57;6.78;;;;;;;-139.48;100.00;61774.03;4997459;28;20520;-68
2021/03/25 08:56:34;;;;;;;11.13;6.53;;;;;;;-139.48;100.00;61774.03;5012488;28;20052;-69
2021/03/25 08:59:30;;;;;;;11.32;5.32;;;;;;;-139.48;100.00;61774.03;5012448;28;20053;-69
2021/03/25 09:02:59;;;;;;;10.48;6.78;;;;;;;-139.48;100.00;61774.03;5011359;28;20418;-69
2021/03/25 09:06:11;;;;;;;10.13;7.05;;;;;;;-139.48;100.00;61774.03;5012035;28;20163;-69
2021/03/25 09:09:10;;;;;;;10.55;6.82;;;;;;;-139.48;100.00;61774.03;5011417;28;20092;-69
2021/03/25 09:11:56;;;;;;;11.50;6.65;;;;;;;-139.48;100.00;61774.03;4997745;28;20116;-69
2021/03/25 09:14:40;;;;;;;11.52;7.05;;;;;;;-139.48;100.00;61774.03;5011040;28;20104;-69
2021/03/25 09:17:28;;;;;;;13.00;6.80;;;;;;;-139.48;100.00;61774.03;5011139;28;20104;-69
2021/03/25 09:20:24;;;;;;;13.73;7.63;;;;;;;-139.48;100.00;61774.03;4997439;28;20482;-69
2021/03/25 09:23:34;;;;;;;12.95;7.28;;;;;;;-139.48;100.00;61774.03;5014283;28;20425;-69
2021/03/25 09:26:20;;;;;;;14.00;7.32;;;;;;;-139.48;100.00;61774.03;5015441;28;20148;-69
2021/03/25 09:29:06;;;;;;;13.27;7.78;;;;;;;-139.48;100.00;61774.03;5015597;28;20048;-69
2021/03/25 09:31:56;;;;;;;11.75;7.93;;;;;;;-139.48;100.00;61774.03;5014236;28;20053;-69
2021/03/25 09:34:43;;;;;;;14.40;7.13;;;;;;;-139.48;100.00;61774.03;5015347;28;20060;-69
2021/03/25 09:37:29;;;;;;;13.32;8.30;;;;;;;-139.48;100.00;61774.03;5014347;28;20153;-69
2021/03/25 09:40:47;;;;;;;14.75;8.00;;;;;;;-139.48;100.00;61774.03;5014175;28;20410;-69
2021/03/25 09:43:39;;;;;;;16.88;9.43;;;;;;;-139.48;100.00;61774.03;5015228;28;20072;-67
2021/03/25 09:46:45;;;;;;;15.48;9.20;;;;;;;-139.48;100.00;61774.03;5002070;28;20048;-68
2021/03/25 09:49:32;;;;;;;16.48;9.57;;;;;;;-139.48;100.00;61774.03;5015306;28;20049;-68
2021/03/25 09:52:28;;;;;;;16.48;9.63;;;;;;;-139.48;100.00;61774.03;5014105;28;20184;-68
2021/03/25 09:55:16;;;;;;;18.77;11.23;;;;;;;-139.48;100.00;61774.03;5014026;28;20052;-68
2021/03/25 09:58:01;;;;;;;20.58;11.93;;;;;;;-139.48;100.00;61774.03;5000675;28;20102;-67
2021/03/25 10:00:51;;;;;;;21.80;12.05;;;;;;;-139.48;100.00;61774.03;5014996;28;20132;-67
2021/03/25 10:03:59;;;;;;;19.30;11.65;;;;;;;-139.48;100.00;61774.03;5014833;28;20541;-68
2021/03/25 10:06:58;;;;;;;20.95;11.68;;;;;;;-139.48;100.00;61774.03;5015025;28;20044;-69
2021/03/25 10:09:48;;;;;;;22.00;12.05;;;;;;;-139.48;100.00;61774.03;5013842;28;20117;-68
2021/03/25 10:13:13;;;;;;;21.92;12.18;;;;;;;-139.48;100.00;61774.03;5014866;28;20442;-69
2021/03/25 10:16:34;;;;;;;23.58;11.45;;;;;;;-139.48;100.00;61774.03;5009306;28;20096;-69
2021/03/25 10:19:47;;;;;;;21.08;11.38;;;;;;;-139.48;100.00;61774.03;5014580;28;20049;-69
2021/03/25 10:22:31;;;;;;;21.90;11.32;;;;;;;-139.48;100.00;61774.03;5014778;28;20056;-69
2021/03/25 10:25:15;;;;;;;20.60;12.10;;;;;;;-139.48;100.00;61774.03;5013635;28;20056;-69
2021/03/25 10:28:01;;;;;;;19.17;11.13;;;;;;;-139.48;100.00;61774.03;5013433;28;20052;-69
2021/03/25 10:30:45;;;;;;;20.40;12.27;;;;;;;-139.48;100.00;61774.03;5014585;28;20087;-69
2021/03/25 10:33:29;;;;;;;20.98;12.05;;;;;;;-139.48;100.00;61774.03;5012683;28;20506;-69
2021/03/25 10:36:19;;;;;;;21.20;13.00;;;;;;;-139.48;100.00;61774.03;5013257;28;20048;-68
2021/03/25 10:39:04;;;;;;;22.27;14.23;;;;;;;-139.48;100.00;61774.03;4999301;28;20088;-68
2021/03/25 10:41:49;;;;;;;24.13;14.60;;;;;;;-139.48;100.00;61774.03;4999591;28;20048;-70
2021/03/25 10:44:34;;;;;;;23.77;14.18;;;;;;;-139.48;100.00;61774.03;5013359;28;20049;-69
2021/03/25 10:47:25;;;;;;;29.50;15.65;;;;;;;-139.48;100.00;61774.03;5013309;28;20084;-69
2021/03/25 10:50:18;;;;;;;23.30;14.80;;;;;;;-139.48;100.00;61774.03;4999242;28;20049;-68
2021/03/25 10:53:16;;;;;;;25.95;15.38;;;;;;;-139.48;100.00;61774.03;5012449;28;20064;-68
2021/03/25 10:56:06;;;;;;;23.77;15.15;;;;;;;-139.48;100.00;61774.03;5012996;28;20100;-69
2021/03/25 10:58:59;;;;;;;23.25;15.30;;;;;;;-139.48;100.00;61774.03;5012952;28;20133;-69
2021/03/25 11:01:55;;;;;;;25.25;15.75;;;;;;;-139.48;100.00;61774.03;5014132;28;20157;-69
2021/03/25 11:04:39;;;;;;;23.88;14.32;;;;;;;-139.48;100.00;61774.03;5012895;28;20066;-70
2021/03/25 11:07:24;;;;;;;27.00;15.70;;;;;;;-139.48;100.00;61774.03;5012917;28;20096;-69
2021/03/25 11:10:23;;;;;;;24.08;15.13;;;;;;;-139.48;100.00;61774.03;5013601;28;20569;-70
2021/03/25 11:13:11;;;;;;;25.75;14.43;;;;;;;-139.48;100.00;61774.03;5012743;28;20053;-69
2021/03/25 11:15:56;;;;;;;26.23;15.52;;;;;;;-139.48;100.00;61774.03;5013337;28;20091;-69
2021/03/25 11:18:44;;;;;;;19.77;13.07;;;;;;;-139.48;100.00;61774.03;5012460;28;20052;-70
2021/03/25 11:21:40;;;;;;;25.13;15.55;;;;;;;-139.48;100.00;61774.03;5013754;28;20100;-70
2021/03/25 11:24:29;;;;;;;21.58;12.57;;;;;;;-139.48;100.00;61774.03;5012343;28;20056;-69
2021/03/25 11:27:18;;;;;;;21.55;13.82;;;;;;;-139.48;100.00;61774.03;5012792;28;20060;-69
2021/03/25 11:30:17;;;;;;;31.15;14.80;;;;;;;-139.48;100.00;61774.03;5012816;28;20565;-69
2021/03/25 11:33:23;;;;;;;26.13;15.00;;;;;;;-139.48;100.00;61774.03;5012226;28;20107;-69
2021/03/25 11:36:08;;;;;;;24.25;14.05;;;;;;;-139.48;100.00;61774.03;5012164;28;20053;-69
2021/03/25 11:38:52;;;;;;;23.83;14.02;;;;;;;-139.48;100.00;61774.03;4998465;28;20111;-69
2021/03/25 11:41:37;;;;;;;22.60;14.40;;;;;;;-139.48;100.00;61774.03;5013360;28;20181;-70
2021/03/25 11:44:43;;;;;;;24.42;15.20;;;;;;;-139.48;100.00;61774.03;4998030;28;20133;-70
2021/03/25 11:47:44;;;;;;;23.77;15.27;;;;;;;-139.48;100.00;61774.03;5013250;28;20088;-69
2021/03/25 11:50:34;;;;;;;26.27;15.02;;;;;;;-139.48;100.00;61774.03;5011967;28;20418;-69
2021/03/25 11:53:39;;;;;;;23.80;14.48;;;;;;;-139.48;100.00;61774.03;5011858;28;20048;-68
2021/03/25 11:56:28;;;;;;;25.20;15.20;;;;;;;-139.48;100.00;61774.03;5012962;28;20096;-70
2021/03/25 11:59:12;;;;;;;26.92;15.93;;;;;;;-139.48;100.00;61774.03;5011841;28;20045;-69
2021/03/25 12:02:13;;;;;;;26.58;15.77;;;;;;;-139.48;100.00;61774.03;5013038;28;20069;-69
2021/03/25 12:04:57;;;;;;;29.80;15.68;;;;;;;-139.48;100.00;61774.03;5013182;28;20100;-69
2021/03/25 12:07:41;;;;;;;23.52;15.10;;;;;;;-139.48;100.00;61774.03;5011704;28;20469;-69
2021/03/25 12:10:25;;;;;;;28.27;15.18;;;;;;;-139.48;100.00;61774.03;5013301;28;20373;-69
2021/03/25 12:13:09;;;;;;;;;;;;;;;-139.48;100.00;61774.03;5012330;28;20051;-69
2021/03/25 12:15:53;;;;;;;22.13;14.43;;;;;;;-139.48;100.00;61774.03;5011535;28;19920;-68
2021/03/25 12:18:46;;;;;;;20.67;14.50;;;;;;;-139.48;100.00;61774.03;5012976;28;20112;-68
2021/03/25 12:21:30;;;;;;;22.98;14.80;;;;;;;-139.48;100.00;61774.03;5011824;28;20049;-69
2021/03/25 12:24:15;;;;;;;26.83;15.05;;;;;;;-139.48;100.00;61774.03;5011716;28;20048;-69
2021/03/25 12:26:59;;;;;;;21.58;14.77;;;;;;;-139.48;100.00;61774.03;5011342;28;20072;-69
2021/03/25 12:29:43;;;;;;;20.35;12.93;;;;;;;-139.48;100.00;61774.03;5012887;28;20057;-69
2021/03/25 12:32:29;;;;;;;22.52;14.18;;;;;;;-139.48;100.00;61774.03;5012642;28;20045;-69
2021/03/25 12:35:16;;;;;;;22.42;13.52;;;;;;;-139.48;100.00;61774.03;5011583;28;20129;-69
2021/03/25 12:38:00;;;;;;;21.92;14.43;;;;;;;-139.48;100.00;61774.03;5011366;28;20052;-69
2021/03/25 12:40:44;;;;;;;;;;;;;;;-139.48;100.00;61774.03;4998385;28;20119;-69
2021/03/25 12:43:30;;;;;;;23.73;15.15;;;;;;;-139.48;100.00;61774.03;5011500;28;19920;-68
2021/03/25 12:46:14;;;;;;;22.52;13.57;;;;;;;-139.48;100.00;61774.03;5011502;28;20053;-69
2021/03/25 12:48:58;;;;;;;28.52;16.25;;;;;;;-139.48;100.00;61774.03;4997705;28;20096;-69
2021/03/25 12:51:43;;;;;;;22.13;14.90;;;;;;;-139.48;100.00;61774.03;5011317;28;20561;-69
2021/03/25 12:54:27;;;;;;;;;;;;;;;-139.48;100.00;61774.03;5011588;28;20522;-69